Airfield :
LOGIN :

Register | Disclaimer

   EN    FR    IT 

 










Legend :    VFR   Marginal VFR   IFR   Intensive IFR   Very Intensive IFR
Visi :
Ceiling :
>= 8 km
>= 3000ft
5 to 8 km
1000 to 3000 ft
1500m to 5 km
500 to 1000 ft
800 to 1500m
200 to 500 ft
< 800m
< 200 ft
Symbols :   Thunderstorms  Fog  Heavy snow  Heavy precipitations  Wind > 20 kt
SIGMETs :     Misc.  Thunderstorms  Icing  Turbulence  Mountain Waves  Volcanic Ashes






- Airport Elevation : 424 ft
- IATA code : QGY


LHPR - Györ Per

CURRENT METAR :
  • 280815Z AUTO 14006KT 8000 OVC020 04/02 Q1023 NOSIG

EXPIRED METARs :
  • 280745Z AUTO 13008KT 7000 BKN023 04/02 Q1023 NOSIG
  • 280715Z AUTO 13010KT 7000 BKN023 04/02 Q1023 NOSIG
  • 280645Z AUTO 13010KT 6000 OVC027 04/02 Q1023
  • 280615Z AUTO 13009KT 6000 OVC024 04/03 Q1023
  • 280545Z AUTO 13006KT 8000 OVC028 04/03 Q1023

TAF TAF LHPR
Valid from the 28 at 09:00 until the 28 at 18:00 UTC


280815Z 2809/2818 14010KT 9999 BKN018



MET'MAP, your aeronautical weather chart ! - Copyright ORBIFLY December 2007 - Disclaimer

ORBIFLY MET'MAP TEAM :

Programming & Development : Alexandra Zaïnal
Original concept : Baudouin d'Aumeries
Technical & hardware support : Manuel Goepfert
Assistance : Marc-Olivier Méhu




SOURCES & CREDITS :

   NOAA